Time;durP1;ratioP1;P1;durP2;ratioP2;P2;SDS_P1;SDS_P2;PMS_P1;PMS_P2;Temp;Humidity;BMP_temperature;BMP_pressure;BME280_temperature;BME280_humidity;BME280_pressure;Samples;Min_cycle;Max_cycle;Signal;HPM_P1;HPM_P2
2023/01/24 00:00:33;;;;;;;44.72;25.65;;;;;;;;;;4987606;28;20038;-83
2023/01/24 00:02:58;;;;;;;47.03;27.65;;;;;;;1.73;100.00;66970.34;5010466;28;20041;-84
2023/01/24 00:05:23;;;;;;;43.50;27.85;;;;;;;1.72;100.00;66969.22;5008291;28;20040;-83
2023/01/24 00:07:48;;;;;;;43.85;26.25;;;;;;;;;;4992661;28;20611;-83
2023/01/24 00:10:14;;;;;;;43.60;25.95;;;;;;;1.72;100.00;66969.22;5009365;28;20060;-84
2023/01/24 00:12:39;;;;;;;43.60;26.17;;;;;;;;;;4990066;28;20051;-83
2023/01/24 00:15:05;;;;;;;39.50;25.55;;;;;;;1.74;100.00;66966.22;4991982;28;20048;-84
2023/01/24 00:17:30;;;;;;;37.35;24.60;;;;;;;;;;5008930;28;20049;-83
2023/01/24 00:19:56;;;;;;;38.88;23.38;;;;;;;1.73;100.00;66970.91;5018859;28;20037;-83
2023/01/24 00:22:21;;;;;;;38.20;20.60;;;;;;;1.74;100.00;66971.47;5012842;28;20049;-83
2023/01/24 00:24:48;;;;;;;37.22;23.33;;;;;;;;;;5009551;28;20518;-83
2023/01/24 00:27:14;;;;;;;36.33;23.45;;;;;;;1.74;100.00;66971.47;5008144;28;20061;-84
2023/01/24 00:29:39;;;;;;;35.05;19.67;;;;;;;1.74;100.00;66966.78;5009489;28;20041;-84
2023/01/24 00:32:04;;;;;;;34.92;21.17;;;;;;;1.76;100.00;66969.03;5022529;28;21595;-83
2023/01/24 00:34:30;;;;;;;35.45;22.40;;;;;;;;;;5008872;28;20169;-83
2023/01/24 00:36:55;;;;;;;36.40;24.25;;;;;;;1.75;100.00;66972.59;5008839;28;20100;-83
2023/01/24 00:39:20;;;;;;;36.30;23.55;;;;;;;1.75;100.00;66972.59;4991308;28;20049;-83
2023/01/24 00:41:45;;;;;;;36.15;22.17;;;;;;;;;;5009334;28;20042;-83
2023/01/24 00:44:11;;;;;;;36.47;22.05;;;;;;;1.76;100.00;66973.72;5008452;28;20046;-83
2023/01/24 00:46:36;;;;;;;35.60;18.90;;;;;;;;;;5008475;28;20040;-83
2023/01/24 00:49:02;;;;;;;34.72;20.20;;;;;;;;;;5008875;28;20046;-83
2023/01/24 00:51:27;;;;;;;30.98;19.20;;;;;;;;;;5008036;28;20053;-83
2023/01/24 00:53:52;;;;;;;28.92;17.88;;;;;;;1.74;100.00;66971.47;5009498;28;20132;-83
2023/01/24 00:56:18;;;;;;;28.70;15.68;;;;;;;;;;5007213;28;20509;-83
2023/01/24 00:58:43;;;;;;;25.88;15.00;;;;;;;;;;5009032;28;20068;-82
2023/01/24 01:01:08;;;;;;;26.88;17.83;;;;;;;1.74;100.00;66966.22;5009103;28;20062;-83
2023/01/24 01:03:34;;;;;;;26.88;16.40;;;;;;;1.73;100.00;66965.66;5007627;28;20071;-83
2023/01/24 01:06:04;;;;;;;27.67;16.30;;;;;;;1.73;100.00;66970.34;5005602;28;20084;-83
2023/01/24 01:08:29;;;;;;;22.92;13.48;;;;;;;1.73;100.00;66970.34;5006071;28;20046;-83
2023/01/24 01:10:55;;;;;;;26.65;16.23;;;;;;;1.73;100.00;66970.34;4988087;28;20100;-83
2023/01/24 01:13:20;;;;;;;26.77;17.25;;;;;;;;;;4997297;28;20597;-83
2023/01/24 01:15:46;;;;;;;24.42;16.48;;;;;;;1.75;100.00;66972.59;5005360;28;20620;-83
2023/01/24 01:18:11;;;;;;;25.88;17.52;;;;;;;1.76;100.00;66968.47;5005555;28;20520;-83
2023/01/24 01:20:36;;;;;;;24.98;16.30;;;;;;;1.74;100.00;66971.47;5004808;28;20080;-84
2023/01/24 01:23:02;;;;;;;26.50;16.88;;;;;;;1.74;100.00;66971.47;5006230;28;20152;-85
2023/01/24 01:25:28;;;;;;;24.60;15.45;;;;;;;1.74;100.00;66971.47;4989311;28;20416;-84
2023/01/24 01:27:53;;;;;;;26.15;17.75;;;;;;;1.72;100.00;66969.78;4988879;28;20038;-84
2023/01/24 01:30:19;;;;;;;26.05;18.55;;;;;;;;;;5005886;28;20243;-85
2023/01/24 01:32:44;;;;;;;25.52;17.08;;;;;;;;;;5006336;28;20069;-84
2023/01/24 01:35:09;;;;;;;28.42;19.38;;;;;;;1.72;100.00;66964.53;5007184;28;20524;-85
2023/01/24 01:37:35;;;;;;;27.00;17.50;;;;;;;1.71;100.00;66968.66;4988321;28;20501;-84
2023/01/24 01:40:01;;;;;;;25.50;16.10;;;;;;;1.70;100.00;66969.59;5007264;28;20042;-84
2023/01/24 01:42:55;;;;;;;27.70;17.92;;;;;;;1.69;100.00;66965.84;5005463;28;20042;-84
2023/01/24 01:45:41;;;;;;;25.85;16.88;;;;;;;1.68;100.00;66965.28;4987770;28;20045;-84
2023/01/24 01:48:39;;;;;;;30.08;21.23;;;;;;;1.65;100.00;66956.09;5005615;28;20079;-84
2023/01/24 01:51:13;;;;;;;27.80;18.05;;;;;;;;;;4983884;28;20038;-85
2023/01/24 01:53:51;;;;;;;26.75;17.08;;;;;;;1.63;100.00;66964.34;4995078;28;20100;-85
2023/01/24 01:56:27;;;;;;;26.92;18.42;;;;;;;1.61;100.00;66957.38;5004411;28;20058;-84
2023/01/24 01:58:57;;;;;;;24.70;16.98;;;;;;;1.60;100.00;66958.88;4989611;28;20041;-84
2023/01/24 02:01:22;;;;;;;23.58;15.70;;;;;;;;;;5005068;28;20052;-84
2023/01/24 02:03:56;;;;;;;28.90;18.23;;;;;;;1.61;100.00;66957.38;4986212;28;20124;-84
2023/01/24 02:06:48;;;;;;;27.85;17.98;;;;;;;1.61;100.00;66952.13;5001437;28;20573;-84
2023/01/24 02:09:20;;;;;;;28.40;16.08;;;;;;;1.60;100.00;66955.72;5005804;28;20099;-84
2023/01/24 02:11:45;;;;;;;29.08;18.08;;;;;;;;;;5007198;28;20041;-84
2023/01/24 02:16:56;;;;;;;28.60;18.85;;;;;;;1.58;100.00;66954.59;5012242;28;20049;-84
2023/01/24 02:19:37;;;;;;;28.10;18.58;;;;;;;1.58;100.00;66954.59;5012655;28;20041;-84
2023/01/24 02:22:15;;;;;;;30.30;20.05;;;;;;;;;;4978816;28;20136;-84
2023/01/24 02:24:44;;;;;;;25.33;17.58;;;;;;;;;;5008852;28;20056;-84
2023/01/24 02:27:09;;;;;;;26.33;18.27;;;;;;;1.54;100.00;66944.81;4992236;28;20125;-84
2023/01/24 02:29:35;;;;;;;28.30;19.35;;;;;;;1.54;100.00;66952.69;4999512;28;20509;-84
2023/01/24 02:32:05;;;;;;;27.23;16.95;;;;;;;1.53;100.00;66948.97;5012666;28;20113;-84
2023/01/24 02:34:30;;;;;;;27.98;18.60;;;;;;;1.53;100.00;66943.72;5012203;28;20038;-85
2023/01/24 02:37:03;;;;;;;27.88;19.00;;;;;;;1.53;100.00;66943.72;5011019;28;20409;-84
2023/01/24 02:39:47;;;;;;;27.63;18.95;;;;;;;;;;5006670;28;20042;-84
2023/01/24 02:42:17;;;;;;;30.00;19.13;;;;;;;1.50;100.00;66945.56;5008512;28;20038;-84
2023/01/24 02:45:05;;;;;;;30.88;20.98;;;;;;;;;;5004656;28;20045;-85
2023/01/24 02:47:35;;;;;;;28.73;18.63;;;;;;;1.50;100.00;66945.03;4997794;28;20052;-84
2023/01/24 02:50:01;;;;;;;32.80;22.10;;;;;;;1.51;100.00;66940.88;4991321;28;20038;-84
2023/01/24 02:55:11;;;;;;;30.30;20.35;;;;;;;1.50;100.00;66939.78;5006916;28;20915;-84
2023/01/24 03:00:21;;;;;;;30.95;23.23;;;;;;;1.44;100.00;66933.59;5007230;28;20052;-85
2023/01/24 03:02:46;;;;;;;32.58;20.88;;;;;;;1.46;100.00;66941.06;4989356;28;20047;-84
2023/01/24 03:05:12;;;;;;;32.45;23.02;;;;;;;1.47;100.00;66936.41;5007617;28;20041;-86
2023/01/24 03:07:44;;;;;;;31.00;21.30;;;;;;;1.46;100.00;66946.31;4994740;28;20033;-84
2023/01/24 03:10:14;;;;;;;33.85;20.73;;;;;;;;;;5006670;28;20041;-84
2023/01/24 03:34:39;;;;;;;35.53;23.50;;;;;;;1.34;100.00;66927.56;5008136;28;20072;-84
2023/01/24 03:37:05;;;;;;;36.20;22.77;;;;;;;1.38;100.00;66931.50;5010382;28;20042;-85
2023/01/24 03:42:14;;;;;;;34.38;21.92;;;;;;;1.37;100.00;66930.38;5010023;28;20125;-84
2023/01/24 03:44:39;;;;;;;35.42;23.55;;;;;;;1.36;100.00;66924.56;4992500;28;20137;-85
2023/01/24 03:47:04;;;;;;;32.67;22.77;;;;;;;;;;5009626;28;20080;-84
2023/01/24 03:52:28;;;;;;;35.33;21.67;;;;;;;;;;5009782;28;20104;-84
2023/01/24 03:54:58;;;;;;;32.70;18.42;;;;;;;1.34;100.00;66927.56;4991139;28;20049;-84
2023/01/24 03:57:27;;;;;;;33.30;21.60;;;;;;;1.36;100.00;66924.56;5003071;28;20070;-85
2023/01/24 03:59:52;;;;;;;34.47;21.52;;;;;;;;;;5002879;28;20042;-85
2023/01/24 04:02:20;;;;;;;32.45;21.63;;;;;;;1.35;100.00;66928.69;5010080;28;20555;-85
2023/01/24 04:07:30;;;;;;;32.40;20.05;;;;;;;;;;5001431;28;20068;-85
2023/01/24 04:09:55;;;;;;;33.88;21.33;;;;;;;1.33;100.00;66931.69;5005378;28;20069;-84
2023/01/24 04:12:21;;;;;;;32.72;20.20;;;;;;;1.32;100.00;66925.31;5009567;28;20050;-84
2023/01/24 04:14:46;;;;;;;35.92;21.52;;;;;;;;;;5011363;28;20084;-84
2023/01/24 04:17:12;;;;;;;34.15;22.50;;;;;;;1.31;100.00;66926.81;5022428;28;20038;-84
2023/01/24 04:19:37;;;;;;;31.50;21.55;;;;;;;1.29;100.00;66921.94;5024943;28;20041;-84
2023/01/24 04:22:02;;;;;;;33.80;23.75;;;;;;;1.29;100.00;66922.47;5026049;28;20125;-84
2023/01/24 04:24:28;;;;;;;33.92;23.05;;;;;;;1.31;100.00;66924.75;5015121;28;20636;-84
2023/01/24 04:26:53;;;;;;;32.08;20.45;;;;;;;;;;5014950;28;20045;-84
2023/01/24 04:29:18;;;;;;;36.75;24.48;;;;;;;;;;5014465;28;20464;-85
2023/01/24 04:31:43;;;;;;;32.85;22.42;;;;;;;;;;5013852;28;20476;-84
2023/01/24 04:34:09;;;;;;;35.10;21.20;;;;;;;;;;5009678;28;20491;-84
2023/01/24 04:36:34;;;;;;;29.65;18.23;;;;;;;;;;4990933;28;20054;-85
2023/01/24 04:38:59;;;;;;;31.50;19.52;;;;;;;1.25;100.00;66912.75;5008593;28;20049;-84
2023/01/24 04:41:25;;;;;;;32.83;21.92;;;;;;;1.25;100.00;66922.69;5009090;28;20404;-85
2023/01/24 04:43:50;;;;;;;33.67;20.05;;;;;;;1.24;100.00;66911.06;5009858;28;20057;-84
2023/01/24 04:46:15;;;;;;;32.83;23.75;;;;;;;1.22;100.00;66908.81;5008809;28;20049;-84
2023/01/24 04:48:42;;;;;;;33.40;22.15;;;;;;;1.21;100.00;66908.25;5009204;28;20072;-85
2023/01/24 04:51:09;;;;;;;32.67;22.50;;;;;;;1.21;100.00;66912.91;5003087;28;20037;-84
2023/01/24 04:53:38;;;;;;;35.40;22.60;;;;;;;1.21;100.00;66908.25;5008909;28;20041;-84
2023/01/24 04:56:04;;;;;;;35.38;22.23;;;;;;;1.24;100.00;66916.31;4989379;28;20500;-84
2023/01/24 04:58:29;;;;;;;34.40;22.17;;;;;;;;;;5007146;28;20044;-84
2023/01/24 05:00:55;;;;;;;31.55;21.27;;;;;;;1.24;100.00;66911.06;4990722;28;20073;-84
2023/01/24 05:03:20;;;;;;;34.67;22.88;;;;;;;1.23;100.00;66915.72;5007314;28;20049;-84
2023/01/24 05:05:49;;;;;;;33.20;22.48;;;;;;;1.24;100.00;66911.63;5006412;28;20041;-84
2023/01/24 05:08:15;;;;;;;35.70;22.38;;;;;;;1.22;100.00;66914.63;4983933;28;20041;-85
2023/01/24 05:10:40;;;;;;;34.90;21.52;;;;;;;1.22;100.00;66914.06;5006615;28;20115;-85
2023/01/24 05:13:05;;;;;;;31.95;20.75;;;;;;;;;;5005809;28;20045;-85
2023/01/24 05:15:31;;;;;;;34.30;20.92;;;;;;;1.22;100.00;66908.81;5005504;28;20057;-85
2023/01/24 05:17:56;;;;;;;34.53;22.83;;;;;;;1.22;100.00;66914.06;5007148;28;20033;-85
2023/01/24 05:20:21;;;;;;;35.00;22.40;;;;;;;1.22;100.00;66916.69;5005771;28;20520;-85
2023/01/24 05:22:48;;;;;;;33.78;20.13;;;;;;;;;;5006963;28;20038;-85
2023/01/24 05:25:15;;;;;;;31.48;22.55;;;;;;;1.16;100.00;66902.06;4988435;28;20475;-85
2023/01/24 05:27:41;;;;;;;32.88;22.45;;;;;;;;;;4987167;28;20042;-84
2023/01/24 05:30:07;;;;;;;28.20;18.00;;;;;;;1.18;100.00;66904.88;5003215;28;20052;-85
2023/01/24 05:32:32;;;;;;;33.33;21.55;;;;;;;;;;4985347;28;20030;-85
2023/01/24 05:34:57;;;;;;;31.02;19.67;;;;;;;1.17;100.00;66903.75;4984043;28;20117;-85
2023/01/24 05:37:23;;;;;;;32.10;22.08;;;;;;;;;;4985215;28;20052;-85
2023/01/24 05:39:48;;;;;;;33.20;20.98;;;;;;;;;;5005629;28;20069;-85
2023/01/24 05:42:13;;;;;;;28.42;19.92;;;;;;;;;;4974471;28;20042;-86
2023/01/24 05:44:38;;;;;;;31.48;21.88;;;;;;;1.18;100.00;66909.53;4982110;28;20042;-86
2023/01/24 05:47:04;;;;;;;35.10;23.02;;;;;;;1.16;100.00;66907.88;4982677;28;20030;-86
2023/01/24 05:49:29;;;;;;;30.63;18.95;;;;;;;1.18;100.00;66904.31;4983108;28;20073;-87
2023/01/24 05:51:54;;;;;;;35.97;25.10;;;;;;;1.16;100.00;66907.31;4987016;28;20038;-85
2023/01/24 05:54:20;;;;;;;31.42;20.33;;;;;;;;;;4979953;28;20490;-85
2023/01/24 05:56:45;;;;;;;30.00;20.02;;;;;;;1.12;100.00;66903.94;4980162;28;20046;-85
2023/01/24 05:59:10;;;;;;;28.48;17.95;;;;;;;1.15;100.00;66906.16;4993958;28;20104;-85
2023/01/24 06:01:36;;;;;;;30.55;20.85;;;;;;;;;;4990238;28;20050;-85
2023/01/24 06:04:01;;;;;;;30.92;21.88;;;;;;;;;;4990899;28;20109;-85
2023/01/24 06:06:27;;;;;;;30.70;19.63;;;;;;;1.16;100.00;66907.88;4987255;28;20050;-85
2023/01/24 06:08:52;;;;;;;29.48;20.35;;;;;;;1.17;100.00;66908.97;4986763;28;20054;-85
2023/01/24 06:11:21;;;;;;;29.08;18.70;;;;;;;;;;4993681;28;20042;-85
2023/01/24 06:13:48;;;;;;;31.27;20.65;;;;;;;1.16;100.00;66907.31;4984766;28;20054;-85
2023/01/24 06:16:17;;;;;;;30.83;21.52;;;;;;;1.18;100.00;66912.75;4987345;28;20050;-85
2023/01/24 06:18:43;;;;;;;33.05;22.73;;;;;;;1.17;100.00;66911.03;4990505;28;20054;-85
2023/01/24 06:21:15;;;;;;;33.25;23.00;;;;;;;;;;4994220;28;20042;-85
2023/01/24 06:23:40;;;;;;;31.17;23.48;;;;;;;;;;4990953;28;20054;-85
2023/01/24 06:26:08;;;;;;;30.20;20.30;;;;;;;1.13;100.00;66899.81;4992628;28;20045;-85
2023/01/24 06:28:34;;;;;;;31.92;21.55;;;;;;;1.10;100.00;66901.69;4991585;28;20042;-85
2023/01/24 06:31:02;;;;;;;29.98;18.77;;;;;;;;;;4988113;28;20041;-85
2023/01/24 06:33:45;;;;;;;31.07;20.13;;;;;;;1.10;100.00;66906.34;4982350;28;20089;-85
2023/01/24 06:36:24;;;;;;;28.98;18.67;;;;;;;;;;4983194;28;20121;-85
2023/01/24 06:38:49;;;;;;;29.85;22.15;;;;;;;1.11;100.00;66902.22;5006441;28;20042;-85
2023/01/24 06:41:16;;;;;;;31.30;18.83;;;;;;;1.10;100.00;66896.44;5006676;28;20129;-85
2023/01/24 06:43:44;;;;;;;31.38;20.10;;;;;;;1.12;100.00;66903.94;5006215;28;20119;-85
2023/01/24 06:46:10;;;;;;;29.90;20.33;;;;;;;1.14;100.00;66897.75;5008050;28;20072;-85
2023/01/24 06:48:36;;;;;;;29.90;21.08;;;;;;;;;;5007371;28;20084;-85
2023/01/24 06:51:01;;;;;;;31.30;23.67;;;;;;;1.12;100.00;66903.94;5008833;28;20049;-85
2023/01/24 06:53:26;;;;;;;33.83;23.52;;;;;;;;;;4991367;28;20077;-85
2023/01/24 06:55:52;;;;;;;31.13;20.48;;;;;;;1.09;100.00;66903.19;5006550;28;20547;-86
2023/01/24 06:58:17;;;;;;;28.33;18.17;;;;;;;;;;5009912;28;20481;-85
2023/01/24 07:00:42;;;;;;;30.90;19.73;;;;;;;1.06;100.00;66899.22;4990881;28;20064;-85
2023/01/24 07:03:08;;;;;;;29.00;19.50;;;;;;;;;;5010801;28;20057;-85
2023/01/24 07:05:38;;;;;;;29.50;20.00;;;;;;;1.07;100.00;66897.75;5010019;28;20687;-85
2023/01/24 07:08:04;;;;;;;28.95;18.50;;;;;;;1.08;100.00;66898.84;5011385;28;20052;-86
2023/01/24 07:10:29;;;;;;;29.98;18.63;;;;;;;1.09;100.00;66899.97;5008707;28;20104;-86
2023/01/24 07:12:55;;;;;;;27.08;19.42;;;;;;;1.09;100.00;66905.78;5011130;28;20054;-85
2023/01/24 07:15:21;;;;;;;28.67;21.35;;;;;;;1.12;100.00;66898.69;5013261;28;20068;-85
2023/01/24 07:17:47;;;;;;;28.95;20.60;;;;;;;1.09;100.00;66899.97;5012816;28;20104;-85
2023/01/24 07:20:13;;;;;;;28.73;20.10;;;;;;;1.09;100.00;66895.31;5015354;28;20101;-85
2023/01/24 07:22:39;;;;;;;28.27;17.90;;;;;;;;;;5002795;28;20582;-84
2023/01/24 07:25:09;;;;;;;28.83;19.63;;;;;;;;;;4999796;28;20053;-84
2023/01/24 07:27:35;;;;;;;32.33;22.13;;;;;;;1.08;100.00;66901.47;5019462;28;20041;-84
2023/01/24 07:30:00;;;;;;;28.05;17.15;;;;;;;;;;5019686;28;20038;-84
2023/01/24 07:32:25;;;;;;;30.17;21.00;;;;;;;;;;5016028;28;20543;-84
2023/01/24 07:34:51;;;;;;;29.15;19.40;;;;;;;1.07;100.00;66898.31;5016654;28;20265;-83
2023/01/24 07:37:21;;;;;;;30.48;19.70;;;;;;;1.07;100.00;66897.75;4999343;28;20049;-84
2023/01/24 07:39:46;;;;;;;30.92;19.15;;;;;;;1.07;100.00;66898.31;4990652;28;20054;-84
2023/01/24 07:42:11;;;;;;;33.03;22.42;;;;;;;1.04;100.00;66889.69;4994745;28;20042;-84
2023/01/24 07:44:37;;;;;;;26.88;18.75;;;;;;;1.04;100.00;66889.69;4992796;28;20042;-84
2023/01/24 07:47:02;;;;;;;28.60;20.05;;;;;;;1.06;100.00;66899.78;4995113;28;20070;-84
2023/01/24 07:49:28;;;;;;;27.70;20.92;;;;;;;1.03;100.00;66893.22;4992288;28;20130;-84
2023/01/24 07:51:53;;;;;;;25.30;16.98;;;;;;;1.05;100.00;66896.03;4988597;28;20053;-84
2023/01/24 07:54:19;;;;;;;25.80;17.95;;;;;;;;;;4992391;28;20057;-84
2023/01/24 07:56:45;;;;;;;28.27;20.98;;;;;;;;;;4987319;28;20044;-84
2023/01/24 07:59:10;;;;;;;28.73;20.48;;;;;;;1.04;100.00;66894.91;4991773;28;20125;-84
2023/01/24 08:01:35;;;;;;;25.90;19.15;;;;;;;1.04;100.00;66894.38;4990042;28;20050;-83
2023/01/24 08:04:01;;;;;;;28.73;19.65;;;;;;;1.03;100.00;66888.53;4989020;28;20038;-84
2023/01/24 08:06:26;;;;;;;26.42;18.48;;;;;;;1.04;100.00;66897.53;4989032;28;20066;-84
2023/01/24 08:08:51;;;;;;;28.08;16.80;;;;;;;1.02;100.00;66887.44;4990893;28;20050;-84
2023/01/24 08:11:17;;;;;;;26.05;20.20;;;;;;;;;;4988731;28;20055;-84
2023/01/24 08:13:45;;;;;;;21.45;15.95;;;;;;;;;;4991647;28;22335;-84
2023/01/24 08:16:10;;;;;;;22.90;15.23;;;;;;;1.02;100.00;66892.09;4987667;28;20038;-84
2023/01/24 08:18:37;;;;;;;21.15;16.80;;;;;;;1.03;100.00;66896.41;4991085;28;20091;-84
2023/01/24 08:21:04;;;;;;;26.42;16.05;;;;;;;1.03;100.00;66888.53;4989983;28;20462;-84
2023/01/24 08:23:29;;;;;;;22.30;15.18;;;;;;;1.03;100.00;66893.78;4988382;28;20053;-84
2023/01/24 08:25:56;;;;;;;23.08;15.15;;;;;;;;;;4988885;28;20038;-84
2023/01/24 08:28:21;;;;;;;22.70;17.38;;;;;;;;;;4992269;28;20410;-84
2023/01/24 08:30:47;;;;;;;21.88;15.82;;;;;;;;;;4990999;28;20057;-84
2023/01/24 08:33:17;;;;;;;23.30;16.73;;;;;;;1.06;100.00;66897.16;4991312;28;20046;-84
2023/01/24 08:35:42;;;;;;;22.52;16.27;;;;;;;1.08;100.00;66898.84;4991177;28;20049;-84
2023/01/24 08:38:08;;;;;;;19.92;13.98;;;;;;;1.09;100.00;66900.56;5005130;28;20132;-84
2023/01/24 08:40:33;;;;;;;22.35;16.60;;;;;;;;;;5008762;28;20045;-85
2023/01/24 08:43:01;;;;;;;21.75;15.00;;;;;;;1.07;100.00;66898.31;5000517;28;20153;-84
2023/01/24 08:45:27;;;;;;;19.63;14.60;;;;;;;;;;5010870;28;20097;-84
2023/01/24 08:47:53;;;;;;;21.63;15.25;;;;;;;1.09;100.00;66900.56;5011118;28;20113;-83
2023/01/24 08:50:19;;;;;;;20.60;14.35;;;;;;;1.10;100.00;66904.28;5010901;28;20049;-84
2023/01/24 08:52:45;;;;;;;21.40;14.55;;;;;;;1.14;100.00;66900.38;5009951;28;20045;-84
2023/01/24 08:55:11;;;;;;;21.15;15.93;;;;;;;1.16;100.00;66907.88;5011592;28;20053;-84
2023/01/24 08:57:36;;;;;;;22.85;15.85;;;;;;;;;;5010220;28;20046;-84
2023/01/24 09:00:02;;;;;;;20.63;13.48;;;;;;;;;;5011348;28;20048;-84
2023/01/24 09:02:27;;;;;;;23.73;16.42;;;;;;;1.18;100.00;66910.13;5008831;28;20054;-84
2023/01/24 09:04:52;;;;;;;23.83;17.27;;;;;;;;;;4997561;28;20100;-84
2023/01/24 09:07:18;;;;;;;20.63;15.52;;;;;;;1.19;100.00;66910.69;4990042;28;20053;-84
2023/01/24 09:09:43;;;;;;;21.40;14.13;;;;;;;;;;4991697;28;20512;-84
2023/01/24 09:12:08;;;;;;;22.48;15.82;;;;;;;;;;5009645;28;20270;-84
2023/01/24 09:14:33;;;;;;;21.77;16.35;;;;;;;1.22;100.00;66916.69;5006673;28;20054;-84
2023/01/24 09:16:59;;;;;;;21.48;14.60;;;;;;;1.21;100.00;66905.63;4990798;28;20082;-84
2023/01/24 09:19:26;;;;;;;21.35;15.00;;;;;;;;;;4991475;28;20404;-84
2023/01/24 09:21:54;;;;;;;22.85;15.27;;;;;;;1.27;100.00;66922.31;5009063;28;20049;-84
2023/01/24 09:24:20;;;;;;;20.77;15.13;;;;;;;1.26;100.00;66921.16;5007700;28;20509;-84
2023/01/24 09:26:45;;;;;;;20.33;15.00;;;;;;;;;;5006775;28;20049;-84
2023/01/24 09:29:10;;;;;;;21.83;16.25;;;;;;;1.28;100.00;66924.00;5008808;28;20061;-84
2023/01/24 09:31:36;;;;;;;20.98;14.35;;;;;;;;;;5006291;28;20049;-84
2023/01/24 09:34:01;;;;;;;19.30;13.35;;;;;;;;;;5007068;28;20069;-83
2023/01/24 09:36:27;;;;;;;21.83;15.85;;;;;;;;;;5007389;28;20045;-84
2023/01/24 09:38:52;;;;;;;22.17;15.45;;;;;;;;;;5005930;28;20050;-84
2023/01/24 09:41:45;;;;;;;21.73;15.52;;;;;;;1.31;100.00;66927.38;5007217;28;20133;-83
2023/01/24 09:44:18;;;;;;;20.10;13.63;;;;;;;1.26;100.00;66919.09;4977087;28;20041;-84
2023/01/24 09:46:48;;;;;;;18.70;12.73;;;;;;;1.27;100.00;66919.69;4988359;28;20042;-83
2023/01/24 09:49:19;;;;;;;20.48;13.68;;;;;;;;;;5008517;28;20574;-84
2023/01/24 09:51:53;;;;;;;18.40;13.35;;;;;;;1.26;100.00;66918.56;5006385;28;20042;-84
2023/01/24 09:54:35;;;;;;;19.77;13.50;;;;;;;1.24;100.00;66916.31;5007876;28;20087;-84
2023/01/24 09:57:11;;;;;;;17.60;11.80;;;;;;;1.23;100.00;66909.94;4980801;28;20074;-84
2023/01/24 09:59:41;;;;;;;18.20;14.20;;;;;;;1.24;100.00;66921.56;4984100;28;20465;-83
2023/01/24 10:02:17;;;;;;;19.83;13.77;;;;;;;;;;4986940;28;20490;-84
2023/01/24 10:04:44;;;;;;;19.67;14.75;;;;;;;1.25;100.00;66912.75;4986738;28;20054;-84
2023/01/24 10:08:00;;;;;;;18.65;14.32;;;;;;;1.26;100.00;66924.34;4986361;28;20045;-84
2023/01/24 10:10:45;;;;;;;18.30;12.43;;;;;;;1.25;100.00;66920.06;4943025;28;20046;-84
2023/01/24 10:13:25;;;;;;;18.67;14.55;;;;;;;1.21;100.00;66916.13;4987262;28;20041;-85
2023/01/24 10:16:13;;;;;;;19.70;13.73;;;;;;;1.24;100.00;66918.94;5005518;28;20050;-84
2023/01/24 10:18:57;;;;;;;18.20;13.68;;;;;;;;;;5008121;28;20543;-84
2023/01/24 10:21:44;;;;;;;18.15;13.98;;;;;;;1.23;100.00;66918.34;4986530;28;20050;-84
2023/01/24 10:24:14;;;;;;;19.02;12.93;;;;;;;1.26;100.00;66918.56;5008162;28;20038;-84
2023/01/24 10:26:47;;;;;;;17.88;14.63;;;;;;;1.29;100.00;66921.94;5005522;28;20068;-84
2023/01/24 10:29:24;;;;;;;20.48;14.70;;;;;;;;;;5010650;28;20038;-84
2023/01/24 10:31:55;;;;;;;18.40;13.63;;;;;;;1.36;100.00;66924.56;5008538;28;20115;-84
2023/01/24 10:34:26;;;;;;;17.83;13.60;;;;;;;;;;4994532;28;20038;-84
2023/01/24 10:36:58;;;;;;;20.70;15.45;;;;;;;1.41;100.00;66934.88;4993349;28;20053;-84
2023/01/24 10:39:24;;;;;;;20.33;14.93;;;;;;;1.44;100.00;66938.81;5008842;28;20042;-84
2023/01/24 10:41:49;;;;;;;20.70;15.43;;;;;;;1.44;100.00;66938.81;5011125;28;20485;-84
2023/01/24 10:44:18;;;;;;;20.92;15.18;;;;;;;;;;4977755;28;20048;-84
2023/01/24 10:47:40;;;;;;;22.23;15.18;;;;;;;1.45;100.00;66939.94;5013040;28;20501;-84
2023/01/24 10:50:09;;;;;;;21.33;15.73;;;;;;;1.44;100.00;66938.81;4904417;29;20512;-84
2023/01/24 10:52:34;;;;;;;23.85;16.13;;;;;;;;;;4922248;29;20036;-83
2023/01/24 10:55:01;;;;;;;19.77;13.98;;;;;;;;;;4964654;28;20738;-84
2023/01/24 10:57:41;;;;;;;20.17;14.80;;;;;;;1.46;100.00;66940.50;5015693;28;20404;-83
2023/01/24 11:00:15;;;;;;;19.60;14.85;;;;;;;1.44;100.00;66940.88;5017655;28;20044;-84
2023/01/24 11:02:44;;;;;;;18.52;14.05;;;;;;;1.41;100.00;66938.06;5014003;28;20136;-84
2023/01/24 11:05:12;;;;;;;18.35;13.57;;;;;;;1.42;100.00;66941.81;5017252;28;20053;-83
2023/01/24 11:07:43;;;;;;;17.13;12.55;;;;;;;1.44;100.00;66933.00;5000163;28;20046;-84
2023/01/24 11:10:20;;;;;;;19.08;13.35;;;;;;;1.46;100.00;66941.06;5019040;28;20056;-84
2023/01/24 11:12:51;;;;;;;18.65;13.90;;;;;;;1.49;100.00;66944.44;5018493;28;20050;-84
2023/01/24 11:15:35;;;;;;;20.30;14.50;;;;;;;1.51;100.00;66949.31;5026669;28;20044;-84
2023/01/24 11:18:19;;;;;;;18.63;13.73;;;;;;;1.56;100.00;66951.78;5026328;28;20115;-84
2023/01/24 11:20:45;;;;;;;21.75;14.70;;;;;;;1.55;100.00;66951.22;5009160;28;20149;-84
2023/01/24 11:23:18;;;;;;;19.88;14.98;;;;;;;1.53;100.00;66951.56;5008702;28;20034;-84
2023/01/24 11:25:57;;;;;;;19.08;13.80;;;;;;;1.54;100.00;66950.06;4995738;28;20046;-84
2023/01/24 11:28:26;;;;;;;18.90;13.68;;;;;;;1.57;100.00;66953.44;4986122;28;20046;-84
2023/01/24 11:30:51;;;;;;;19.58;15.30;;;;;;;;;;4989089;28;20043;-85
2023/01/24 11:33:34;;;;;;;19.45;14.63;;;;;;;;;;4991874;28;20528;-84
2023/01/24 11:36:02;;;;;;;20.40;15.27;;;;;;;;;;4974934;28;20515;-84
2023/01/24 11:38:42;;;;;;;19.55;15.80;;;;;;;1.52;100.00;66942.56;5009125;28;20046;-84
2023/01/24 11:41:14;;;;;;;19.73;14.15;;;;;;;1.52;100.00;66947.81;5016949;28;20132;-84
2023/01/24 11:44:27;;;;;;;19.33;15.35;;;;;;;1.52;100.00;66947.25;5005972;28;20095;-84
2023/01/24 11:47:28;;;;;;;25.35;18.48;;;;;;;1.49;100.00;66938.63;5008097;28;20126;-84
2023/01/24 11:50:00;;;;;;;34.95;22.80;;;;;;;;;;4991890;28;20669;-84
2023/01/24 11:52:39;;;;;;;26.27;18.15;;;;;;;;;;5008252;28;20056;-84
2023/01/24 11:55:17;;;;;;;18.42;15.13;;;;;;;1.56;100.00;66952.34;5007960;28;20069;-84
2023/01/24 11:57:52;;;;;;;19.77;14.95;;;;;;;;;;4990710;28;20112;-84
2023/01/24 12:00:58;;;;;;;17.33;14.07;;;;;;;1.57;100.00;66948.19;5009276;28;20085;-84
2023/01/24 12:03:26;;;;;;;24.25;19.00;;;;;;;;;;4984961;28;20069;-84
2023/01/24 12:06:40;;;;;;;18.10;13.50;;;;;;;1.55;100.00;66945.38;5009983;28;20052;-84
2023/01/24 12:09:18;;;;;;;18.85;14.27;;;;;;;;;;4912870;28;20544;-84
2023/01/24 12:12:01;;;;;;;19.23;13.23;;;;;;;1.51;100.00;66946.69;5005784;28;20067;-84
2023/01/24 12:14:47;;;;;;;19.88;16.65;;;;;;;1.49;100.00;66943.88;5009434;28;20061;-84
2023/01/24 12:17:31;;;;;;;18.35;13.52;;;;;;;1.50;100.00;66945.56;5010284;28;20129;-84
2023/01/24 12:20:34;;;;;;;24.25;18.80;;;;;;;1.51;100.00;66946.13;5010057;28;20041;-84
2023/01/24 12:23:24;;;;;;;22.98;17.10;;;;;;;1.51;100.00;66946.69;5003639;28;20053;-84
2023/01/24 12:25:51;;;;;;;;;;;;;;;1.45;100.00;66934.69;4987737;28;20043;-84
2023/01/24 12:28:43;;;;;;;19.08;15.02;;;;;;;1.40;100.00;66936.38;4982367;28;19957;-84
2023/01/24 12:31:15;;;;;;;20.08;15.23;;;;;;;1.44;100.00;66941.44;4965554;28;20124;-84
2023/01/24 12:33:55;;;;;;;19.48;13.20;;;;;;;1.45;100.00;66939.94;5010928;28;20038;-84
2023/01/24 12:36:40;;;;;;;21.38;14.10;;;;;;;;;;5009560;28;20050;-84
2023/01/24 12:39:24;;;;;;;17.02;11.75;;;;;;;;;;4993415;28;20044;-84
2023/01/24 12:42:11;;;;;;;20.48;14.27;;;;;;;1.56;100.00;66952.34;4988907;28;20049;-84
2023/01/24 12:44:46;;;;;;;22.08;16.35;;;;;;;1.61;100.00;66951.59;4992063;28;20042;-84
2023/01/24 12:47:14;;;;;;;18.20;13.90;;;;;;;;;;5008317;28;20076;-84
2023/01/24 12:49:53;;;;;;;19.53;14.10;;;;;;;;;;5009228;28;20050;-84
2023/01/24 12:52:40;;;;;;;24.83;16.23;;;;;;;1.54;100.00;66952.69;5003025;28;20046;-84
2023/01/24 12:55:09;;;;;;;23.40;15.98;;;;;;;1.55;100.00;66956.47;4983733;28;20057;-84
2023/01/24 12:57:43;;;;;;;19.80;13.55;;;;;;;1.54;100.00;66950.06;4986311;28;20066;-84
2023/01/24 13:00:22;;;;;;;28.65;20.58;;;;;;;;;;4983592;28;20088;-84